Alpine Airstrip, AK

11:36 AM AKST on January 30, 2015 (GMT -0900)
Kuparuk | Change Station
CLOSE
Current Station
Airport
Location: Kuparuk,
Elevation: 66 ft
Nearby Weather Stations
Active Advisory: Winter Weather Advisory

Elev 66 ft 70.33 °N, 149.60 °W | Updated 1 hour ago

Overcast
Overcast
10 °F
Feels Like -11 °F
N
26
Wind Variable Wind from WSW
Gusts 34 mph

Today
High -- | Low -- °F
--% Chance of Precip.
Yesterday
High -- | Low -- °F
Precip. -- in
11:06 AM 3:29 PM
Waxing Gibbous, 85% visible
Pressure 30.29 in
Visibility 7.0 miles
Clouds Overcast 6500 ft
Windchill -11 °F
Dew Point 9 °F
Humidity 92%
Rainfall 0.00 in
Snow Depth Not available.
UV 0 out of 12
Pollen Not available.
Air Quality Not available.
Flu Activity Not available.
METAR PAKU 301845Z 25023G30KT 7SM R24/P6000FT OVC065 M12/M13 A3029

More Conditions Fewer Conditions

Pressure 30.29 in
Visibility 7.0 miles
Clouds Overcast 6500 ft
Windchill -11 °F
Dew Point 9 °F
Humidity 92%
Rainfall 0.00 in
Snow Depth Not available.
UV 0 out of 12
Pollen Not available.
Air Quality Not available.
Flu Activity Not available.
METAR PAKU 301845Z 25023G30KT 7SM R24/P6000FT OVC065 M12/M13 A3029

More Conditions Fewer Conditions

10-Day Weather Forecast

Almanac

Astronomy

Jan. 30, 2015 Rise Set
Actual Time
Civil Twilight
Nautical Twilight
Astronomical Twilight
Moon
Length of Visible Light
Length of Day
Tomorrow will be .
, % of the Moon is Illuminated

Today's Extremes

State Highs State Lows

Community

WunderPhotos

Upload Photos

1,791,889 photos uploaded!

WunderBlogs® & News

Nearby

Air Quality

  Air Quality AQ Index Pollutant
Not available.

Snow Depth

Station Depth Elevation

Earthquake Activity

City Distance Mag. Time & Date
Minimum magnitude displayed is 2.5.

Coastal Water Temperatures

Place Temperature

Nearby Weather Stations